createdAt,value
2023-05-16T00:01:51.146Z,12.10
2023-05-16T00:04:18.173Z,11.75
2023-05-16T00:06:45.099Z,11.65
2023-05-16T00:09:12.120Z,10.95
2023-05-16T00:11:38.999Z,11.65
2023-05-16T00:14:05.889Z,12.48
2023-05-16T00:16:33.001Z,12.07
2023-05-16T00:19:01.083Z,12.50
2023-05-16T00:21:28.602Z,12.95
2023-05-16T00:23:55.728Z,13.20
2023-05-16T00:26:22.671Z,12.38
2023-05-16T00:28:49.522Z,13.32
2023-05-16T00:31:16.398Z,14.60
2023-05-16T00:33:44.456Z,12.90
2023-05-16T00:36:11.340Z,13.13
2023-05-16T00:38:38.936Z,13.07
2023-05-16T00:41:06.022Z,13.75
2023-05-16T00:43:32.863Z,14.63
2023-05-16T00:46:00.768Z,13.57
2023-05-16T00:48:29.025Z,13.30
2023-05-16T00:50:56.147Z,14.07
2023-05-16T00:53:24.777Z,14.57
2023-05-16T00:55:52.347Z,13.93
2023-05-16T00:58:20.259Z,14.43
2023-05-16T01:00:48.815Z,14.65
2023-05-16T01:03:16.072Z,14.23
2023-05-16T01:05:43.116Z,13.02
2023-05-16T01:08:10.781Z,14.73
2023-05-16T01:10:50.080Z,13.77
2023-05-16T01:13:36.265Z,14.50
2023-05-16T01:16:10.463Z,13.27
2023-05-16T01:19:09.680Z,13.23
2023-05-16T01:21:49.997Z,13.00
2023-05-16T01:26:52.978Z,12.45
2023-05-16T01:29:20.065Z,12.38
2023-05-16T01:31:47.333Z,13.00
2023-05-16T01:34:14.227Z,12.32
2023-05-16T01:36:53.438Z,12.15
2023-05-16T01:39:36.358Z,12.57
2023-05-16T01:42:08.968Z,12.43
2023-05-16T01:44:43.527Z,12.00
2023-05-16T01:47:13.937Z,12.27
2023-05-16T01:50:05.500Z,12.65
2023-05-16T01:52:42.379Z,12.02
2023-05-16T01:55:12.394Z,12.57
2023-05-16T01:57:41.086Z,12.15
2023-05-16T02:00:08.728Z,11.80
2023-05-16T02:02:41.145Z,13.52
2023-05-16T02:05:09.475Z,11.20
2023-05-16T02:07:37.127Z,11.95
2023-05-16T02:10:04.969Z,12.23
2023-05-16T02:12:35.381Z,10.98
2023-05-16T02:15:02.236Z,11.30
2023-05-16T02:17:29.146Z,12.63
2023-05-16T02:19:56.064Z,12.05
2023-05-16T02:22:23.011Z,12.13
2023-05-16T02:24:49.867Z,10.70
2023-05-16T02:27:16.735Z,11.98
2023-05-16T02:29:43.576Z,11.00
2023-05-16T02:32:10.411Z,11.20
2023-05-16T02:34:37.278Z,11.13
2023-05-16T02:37:05.089Z,10.90
2023-05-16T02:39:32.795Z,10.05
2023-05-16T02:41:59.650Z,10.52
2023-05-16T02:44:26.639Z,11.18
2023-05-16T02:46:53.470Z,10.90
2023-05-16T02:49:21.220Z,11.07
2023-05-16T02:51:48.095Z,11.52
2023-05-16T02:54:15.349Z,10.02
2023-05-16T02:56:42.257Z,9.70
2023-05-16T02:59:09.115Z,9.75
2023-05-16T03:01:36.035Z,9.23
2023-05-16T03:04:03.333Z,9.23
2023-05-16T03:06:30.665Z,7.85
2023-05-16T03:08:59.648Z,7.43
2023-05-16T03:11:28.976Z,8.40
2023-05-16T03:13:55.882Z,9.30
2023-05-16T03:16:24.418Z,7.97
2023-05-16T03:18:51.937Z,7.75
2023-05-16T03:21:18.839Z,8.20
2023-05-16T03:23:45.780Z,8.45
2023-05-16T03:26:12.696Z,7.95
2023-05-16T03:28:39.617Z,8.25
2023-05-16T03:31:06.530Z,8.07
2023-05-16T03:33:33.518Z,8.30
2023-05-16T03:36:00.451Z,7.78
2023-05-16T03:38:27.397Z,8.35
2023-05-16T03:40:54.778Z,8.48
2023-05-16T03:43:21.656Z,8.85
2023-05-16T03:45:48.567Z,8.13
2023-05-16T03:48:15.558Z,8.02
2023-05-16T03:50:42.371Z,8.27
2023-05-16T03:53:09.804Z,8.50
2023-05-16T03:55:36.878Z,8.05
2023-05-16T03:58:03.895Z,7.75
2023-05-16T04:00:30.825Z,8.65
2023-05-16T04:02:58.288Z,7.38
2023-05-16T04:05:25.500Z,7.32
2023-05-16T04:07:52.664Z,7.25
2023-05-16T04:10:19.782Z,7.22
2023-05-16T04:12:46.664Z,7.60
2023-05-16T04:15:13.715Z,7.45
2023-05-16T04:17:40.693Z,7.97
2023-05-16T04:20:07.851Z,8.13
2023-05-16T04:22:34.719Z,7.20
2023-05-16T04:25:01.651Z,7.60
2023-05-16T04:27:29.069Z,7.30
2023-05-16T04:29:56.292Z,8.25
2023-05-16T04:32:24.094Z,7.80
2023-05-16T04:34:54.221Z,8.55
2023-05-16T04:37:21.568Z,7.70
2023-05-16T04:39:48.833Z,7.80
2023-05-16T04:42:16.413Z,8.32
2023-05-16T04:44:44.123Z,8.40
2023-05-16T04:47:11.064Z,8.07
2023-05-16T04:49:37.900Z,7.70
2023-05-16T04:52:06.127Z,6.50
2023-05-16T04:54:33.001Z,6.72
2023-05-16T04:56:59.840Z,6.68
2023-05-16T04:59:26.785Z,6.90
2023-05-16T05:01:54.539Z,5.82
2023-05-16T05:04:22.587Z,6.03
2023-05-16T05:06:49.548Z,5.35
2023-05-16T05:09:17.281Z,5.07
2023-05-16T05:11:44.203Z,4.72
2023-05-16T05:14:11.098Z,4.63
2023-05-16T05:16:38.076Z,5.05
2023-05-16T05:19:05.207Z,4.07
2023-05-16T05:21:32.317Z,4.70
2023-05-16T05:23:59.280Z,4.75
2023-05-16T05:26:26.376Z,4.40
2023-05-16T05:29:04.565Z,3.72
2023-05-16T05:31:35.231Z,3.90
2023-05-16T05:34:02.929Z,4.40
2023-05-16T05:36:30.920Z,3.75
2023-05-16T05:38:57.964Z,3.60
2023-05-16T05:41:24.828Z,3.28
2023-05-16T05:43:51.808Z,3.72
2023-05-16T05:46:18.826Z,3.95
2023-05-16T05:48:45.826Z,3.97
2023-05-16T05:51:14.328Z,4.75
2023-05-16T05:53:41.896Z,3.78
2023-05-16T05:56:09.349Z,3.95
2023-05-16T05:58:36.351Z,3.13
2023-05-16T06:01:03.247Z,2.10
2023-05-16T06:03:30.392Z,2.58
2023-05-16T06:05:57.366Z,2.40
2023-05-16T06:08:24.306Z,2.17
2023-05-16T06:10:51.446Z,2.55
2023-05-16T06:13:18.320Z,1.50
2023-05-16T06:15:45.557Z,1.80
2023-05-16T06:18:12.930Z,1.50
2023-05-16T06:20:39.910Z,1.98
2023-05-16T06:23:06.711Z,1.80
2023-05-16T06:25:33.608Z,2.08
2023-05-16T06:28:00.484Z,1.50
2023-05-16T06:30:27.334Z,1.83
2023-05-16T06:32:54.201Z,1.75
2023-05-16T06:35:21.073Z,1.67
2023-05-16T06:37:47.947Z,1.35
2023-05-16T06:40:14.883Z,2.10
2023-05-16T06:42:41.839Z,2.10
2023-05-16T06:45:09.413Z,1.83
2023-05-16T06:47:36.581Z,2.33
2023-05-16T06:50:03.594Z,1.95
2023-05-16T06:52:30.978Z,1.90
2023-05-16T06:54:57.811Z,1.65
2023-05-16T06:57:24.837Z,2.05
2023-05-16T06:59:51.772Z,2.83
2023-05-16T07:02:18.733Z,2.60
2023-05-16T07:04:45.665Z,1.63
2023-05-16T07:07:13.646Z,1.98
2023-05-16T07:09:40.551Z,1.85
2023-05-16T07:12:07.698Z,2.20
2023-05-16T07:14:34.686Z,2.22
2023-05-16T07:17:02.061Z,2.70
2023-05-16T07:19:29.213Z,2.83
2023-05-16T07:21:56.164Z,2.30
2023-05-16T07:24:23.131Z,2.45
2023-05-16T07:26:50.135Z,2.70
2023-05-16T07:29:17.225Z,3.15
2023-05-16T07:31:44.165Z,2.47
2023-05-16T07:34:12.102Z,2.53
2023-05-16T07:36:39.080Z,2.42
2023-05-16T07:39:06.012Z,2.10
2023-05-16T07:41:32.915Z,3.28
2023-05-16T07:43:59.850Z,2.50
2023-05-16T07:46:26.969Z,2.40
2023-05-16T07:48:53.987Z,2.85
2023-05-16T07:51:20.943Z,2.60
2023-05-16T07:53:48.105Z,2.70
2023-05-16T07:56:15.203Z,2.40
2023-05-16T07:58:42.245Z,1.60
2023-05-16T08:01:09.230Z,2.45
2023-05-16T08:03:36.891Z,2.17
2023-05-16T08:06:04.080Z,2.17
2023-05-16T08:08:31.338Z,1.98
2023-05-16T08:10:58.619Z,2.22
2023-05-16T08:13:25.570Z,2.47
2023-05-16T08:15:52.766Z,2.13
2023-05-16T08:18:22.044Z,2.10
2023-05-16T08:20:49.452Z,2.70
2023-05-16T08:23:16.464Z,2.15
2023-05-16T08:25:43.410Z,2.70
2023-05-16T08:28:10.418Z,2.42
2023-05-16T08:30:37.284Z,2.58
2023-05-16T08:33:05.510Z,2.20
2023-05-16T08:35:32.999Z,2.00
2023-05-16T08:37:59.866Z,1.85
2023-05-16T08:40:27.752Z,2.85
2023-05-16T08:42:55.052Z,2.40
2023-05-16T08:45:23.573Z,2.10
2023-05-16T08:47:52.684Z,1.70
2023-05-16T08:50:19.788Z,1.65
2023-05-16T08:52:51.388Z,1.88
2023-05-16T08:55:20.408Z,1.63
2023-05-16T08:57:48.942Z,2.38
2023-05-16T09:00:17.445Z,1.35
2023-05-16T09:02:44.940Z,1.35
2023-05-16T09:05:13.966Z,2.28
2023-05-16T09:07:43.169Z,1.67
2023-05-16T09:10:11.043Z,1.63
2023-05-16T09:12:39.229Z,3.72
2023-05-16T09:15:07.925Z,1.52
2023-05-16T09:17:39.805Z,1.50
2023-05-16T09:20:12.389Z,1.92
2023-05-16T09:22:40.608Z,1.67
2023-05-16T09:25:12.749Z,1.60
2023-05-16T09:27:42.313Z,2.03
2023-05-16T09:30:09.940Z,1.40
2023-05-16T09:32:36.936Z,1.45
2023-05-16T09:35:04.241Z,1.40
2023-05-16T09:37:31.160Z,1.80
2023-05-16T09:39:58.117Z,2.25
2023-05-16T09:42:25.912Z,1.67
2023-05-16T09:44:55.017Z,1.75
2023-05-16T09:47:22.521Z,1.67
2023-05-16T09:49:54.339Z,1.63
2023-05-16T09:52:21.520Z,1.50
2023-05-16T09:54:49.985Z,2.03
2023-05-16T09:57:21.618Z,1.23
2023-05-16T09:59:48.650Z,2.40
2023-05-16T10:02:16.855Z,1.88
2023-05-16T10:04:43.898Z,1.42
2023-05-16T10:07:11.022Z,2.20
2023-05-16T10:09:40.753Z,1.95
2023-05-16T10:12:11.405Z,1.52
2023-05-16T10:14:41.119Z,2.45
2023-05-16T10:17:10.349Z,1.45
2023-05-16T10:19:39.440Z,2.03
2023-05-16T10:22:07.457Z,1.30
2023-05-16T10:24:58.158Z,1.95
2023-05-16T10:27:26.234Z,1.80
2023-05-16T10:29:55.120Z,1.48
2023-05-16T10:32:25.525Z,2.10
2023-05-16T10:34:53.115Z,1.40
2023-05-16T10:37:20.090Z,1.63
2023-05-16T10:39:47.250Z,1.33
2023-05-16T10:42:18.253Z,1.60
2023-05-16T10:44:51.619Z,1.70
2023-05-16T10:47:29.414Z,1.63
2023-05-16T10:49:56.477Z,1.40
2023-05-16T10:52:33.992Z,1.33
2023-05-16T10:55:04.866Z,1.33
2023-05-16T10:57:34.307Z,1.30
2023-05-16T11:00:02.216Z,1.23
2023-05-16T11:02:33.749Z,1.60
2023-05-16T11:05:02.928Z,1.38
2023-05-16T11:07:34.865Z,1.38
2023-05-16T11:10:15.963Z,1.48
2023-05-16T11:12:50.685Z,1.48
2023-05-16T11:15:18.882Z,1.70
2023-05-16T11:17:46.451Z,1.65
2023-05-16T11:20:40.260Z,1.70
2023-05-16T11:23:18.884Z,1.40
2023-05-16T11:25:47.107Z,1.75
2023-05-16T11:28:17.185Z,1.60
2023-05-16T11:30:46.818Z,1.65
2023-05-16T11:33:13.997Z,1.48
2023-05-16T11:35:41.109Z,1.40
2023-05-16T11:38:16.786Z,1.48
2023-05-16T11:40:44.781Z,1.30
2023-05-16T11:43:12.407Z,1.48
2023-05-16T11:45:39.689Z,1.40
2023-05-16T11:48:08.346Z,1.20
2023-05-16T11:50:36.437Z,1.50
2023-05-16T11:53:03.929Z,0.98
2023-05-16T11:58:02.105Z,0.95
2023-05-16T12:00:29.355Z,1.60
2023-05-16T12:03:03.209Z,1.70
2023-05-16T12:05:32.088Z,1.48
2023-05-16T12:07:59.863Z,1.52
2023-05-16T12:10:27.196Z,1.20
2023-05-16T12:12:56.267Z,1.10
2023-05-16T12:15:23.347Z,1.63
2023-05-16T12:17:51.574Z,1.13
2023-05-16T12:20:19.161Z,1.85
2023-05-16T12:22:47.349Z,1.35
2023-05-16T12:25:42.292Z,1.33
2023-05-16T12:28:10.146Z,1.20
2023-05-16T12:30:43.603Z,1.65
2023-05-16T12:33:13.236Z,2.08
2023-05-16T12:35:42.958Z,1.30
2023-05-16T12:38:14.546Z,1.30
2023-05-16T12:40:43.218Z,1.80
2023-05-16T12:43:15.066Z,1.33
2023-05-16T12:45:43.289Z,1.45
2023-05-16T12:48:14.267Z,1.02
2023-05-16T12:50:41.979Z,1.40
2023-05-16T12:53:14.013Z,1.77
2023-05-16T12:55:42.286Z,1.13
2023-05-16T12:58:10.456Z,1.20
2023-05-16T13:00:37.856Z,1.67
2023-05-16T13:03:06.344Z,1.83
2023-05-16T13:05:33.797Z,1.10
2023-05-16T13:08:01.424Z,1.00
2023-05-16T13:10:28.588Z,1.00
2023-05-16T13:12:59.974Z,1.73
2023-05-16T13:15:27.810Z,1.00
2023-05-16T13:17:55.368Z,0.95
2023-05-16T13:20:22.316Z,1.10
2023-05-16T13:22:49.256Z,2.08
2023-05-16T13:25:16.278Z,1.13
2023-05-16T13:27:43.268Z,1.17
2023-05-16T13:30:10.395Z,0.98
2023-05-16T13:32:38.164Z,1.00
2023-05-16T13:35:06.114Z,1.92
2023-05-16T13:37:33.512Z,1.08
2023-05-16T13:40:00.438Z,1.13
2023-05-16T13:42:27.658Z,0.93
2023-05-16T13:44:54.706Z,1.10
2023-05-16T13:47:21.771Z,1.30
2023-05-16T13:49:48.922Z,1.20
2023-05-16T13:52:16.402Z,1.23
2023-05-16T13:54:43.391Z,1.33
2023-05-16T13:57:10.426Z,1.35
2023-05-16T14:00:10.837Z,1.10
2023-05-16T14:02:26.221Z,1.10
2023-05-16T14:04:53.954Z,1.30
2023-05-16T14:07:21.225Z,0.93
2023-05-16T14:09:48.164Z,1.70
2023-05-16T14:12:15.122Z,1.52
2023-05-16T14:14:42.262Z,1.30
2023-05-16T14:17:09.257Z,1.42
2023-05-16T14:19:36.488Z,1.40
2023-05-16T14:22:03.575Z,1.42
2023-05-16T14:24:30.689Z,1.85
2023-05-16T14:26:57.591Z,1.48
2023-05-16T14:29:25.303Z,1.35
2023-05-16T14:31:52.479Z,1.40
2023-05-16T14:34:19.461Z,1.00
2023-05-16T14:36:46.376Z,0.88
2023-05-16T14:39:13.615Z,1.00
2023-05-16T14:41:40.681Z,1.20
2023-05-16T14:44:07.584Z,1.65
2023-05-16T14:46:34.550Z,1.00
2023-05-16T14:49:01.674Z,0.93
2023-05-16T14:51:28.739Z,1.20
2023-05-16T14:53:55.673Z,1.02
2023-05-16T14:56:22.778Z,1.00
2023-05-16T14:58:49.821Z,1.10
2023-05-16T15:01:17.305Z,0.90
2023-05-16T15:03:54.755Z,0.80
2023-05-16T15:06:23.918Z,1.10
2023-05-16T15:08:51.022Z,1.45
2023-05-16T15:11:17.950Z,0.90
2023-05-16T15:13:44.917Z,1.10
2023-05-16T15:16:12.478Z,1.15
2023-05-16T15:18:40.440Z,0.88
2023-05-16T15:21:07.550Z,1.00
2023-05-16T15:23:34.516Z,1.00
2023-05-16T15:26:01.528Z,1.33
2023-05-16T15:28:28.423Z,1.20
2023-05-16T15:30:55.395Z,1.13
2023-05-16T15:33:22.289Z,1.35
2023-05-16T15:35:49.174Z,1.20
2023-05-16T15:38:17.246Z,1.13
2023-05-16T15:40:44.244Z,0.95
2023-05-16T15:43:11.151Z,1.30
2023-05-16T15:45:40.342Z,1.00
2023-05-16T15:48:07.874Z,1.25
2023-05-16T15:50:34.838Z,1.25
2023-05-16T15:53:01.776Z,1.13
2023-05-16T15:55:28.907Z,1.40
2023-05-16T15:57:58.558Z,1.23
2023-05-16T16:00:26.247Z,2.00
2023-05-16T16:02:53.612Z,2.90
2023-05-16T16:05:20.707Z,7.13
2023-05-16T16:07:47.606Z,2.58
2023-05-16T16:10:14.659Z,1.80
2023-05-16T16:12:41.808Z,3.92
2023-05-16T16:15:10.687Z,3.63
2023-05-16T16:17:37.702Z,5.15
2023-05-16T16:20:05.246Z,3.67
2023-05-16T16:22:32.203Z,2.72
2023-05-16T16:25:00.915Z,1.00
2023-05-16T16:27:28.676Z,1.52
2023-05-16T16:29:55.565Z,2.67
2023-05-16T16:32:22.676Z,1.65
2023-05-16T16:34:50.232Z,1.75
2023-05-16T16:37:17.109Z,1.40
2023-05-16T16:39:44.450Z,1.25
2023-05-16T16:42:11.757Z,1.50
2023-05-16T16:44:38.679Z,2.00
2023-05-16T16:47:07.018Z,1.05
2023-05-16T16:49:33.965Z,1.25
2023-05-16T16:52:00.825Z,0.80
2023-05-16T16:54:28.183Z,1.00
2023-05-16T16:56:56.428Z,1.58
2023-05-16T16:59:23.551Z,1.10
2023-05-16T17:01:50.758Z,1.02
2023-05-16T17:04:17.699Z,1.02
2023-05-16T17:06:46.468Z,0.90
2023-05-16T17:09:18.196Z,1.20
2023-05-16T17:11:46.911Z,1.02
2023-05-16T17:14:14.771Z,1.10
2023-05-16T17:16:41.903Z,1.23
2023-05-16T17:19:10.863Z,0.98
2023-05-16T17:21:40.676Z,1.25
2023-05-16T17:24:08.091Z,1.17
2023-05-16T17:26:35.930Z,1.08
2023-05-16T17:29:07.098Z,1.13
2023-05-16T17:31:34.753Z,1.20
2023-05-16T17:34:01.663Z,1.13
2023-05-16T17:36:28.662Z,1.45
2023-05-16T17:38:55.540Z,0.85
2023-05-16T17:41:22.851Z,1.50
2023-05-16T17:43:49.878Z,1.23
2023-05-16T17:46:17.080Z,0.98
2023-05-16T17:48:44.935Z,1.60
2023-05-16T17:51:11.840Z,0.98
2023-05-16T17:53:39.217Z,1.25
2023-05-16T17:56:06.122Z,0.90
2023-05-16T17:58:33.316Z,1.17
2023-05-16T18:01:01.134Z,0.88
2023-05-16T18:03:27.989Z,0.88
2023-05-16T18:05:54.991Z,0.95
2023-05-16T18:08:22.421Z,1.20
2023-05-16T18:10:52.527Z,1.45
2023-05-16T18:15:47.367Z,0.95
2023-05-16T18:18:14.710Z,1.23
2023-05-16T18:20:42.841Z,1.38
2023-05-16T18:23:09.744Z,1.20
2023-05-16T18:25:36.681Z,1.10
2023-05-16T18:28:03.891Z,1.83
2023-05-16T18:30:30.834Z,1.15
2023-05-16T18:32:57.780Z,1.05
2023-05-16T18:35:24.699Z,0.98
2023-05-16T18:37:51.766Z,1.40
2023-05-16T18:40:19.263Z,1.20
2023-05-16T18:42:46.154Z,0.82
2023-05-16T18:45:13.441Z,1.00
2023-05-16T18:47:40.584Z,1.15
2023-05-16T18:50:08.234Z,1.30
2023-05-16T18:52:36.897Z,1.10
2023-05-16T18:55:06.088Z,1.10
2023-05-16T18:57:33.835Z,1.52
2023-05-16T19:00:01.349Z,0.95
2023-05-16T19:02:41.074Z,1.02
2023-05-16T19:05:10.326Z,1.52
2023-05-16T19:07:37.428Z,1.40
2023-05-16T19:10:05.482Z,0.98
2023-05-16T19:12:32.420Z,1.10
2023-05-16T19:14:59.446Z,1.73
2023-05-16T19:17:26.795Z,1.13
2023-05-16T19:19:54.640Z,0.98
2023-05-16T19:22:21.639Z,1.75
2023-05-16T19:24:48.635Z,1.58
2023-05-16T19:27:16.159Z,1.10
2023-05-16T19:29:43.113Z,1.52
2023-05-16T19:32:10.799Z,1.27
2023-05-16T19:34:37.779Z,1.30
2023-05-16T19:37:05.079Z,1.60
2023-05-16T19:39:32.227Z,1.23
2023-05-16T19:42:07.185Z,1.50
2023-05-16T19:44:35.274Z,1.20
2023-05-16T19:47:02.215Z,1.50
2023-05-16T19:49:31.723Z,1.10
2023-05-16T19:52:01.116Z,1.00
2023-05-16T19:54:28.951Z,1.00
2023-05-16T19:56:56.124Z,1.10
2023-05-16T19:59:23.108Z,1.60
2023-05-16T20:01:50.352Z,1.10
2023-05-16T20:04:17.443Z,1.77
2023-05-16T20:06:44.549Z,2.15
2023-05-16T20:09:14.670Z,1.80
2023-05-16T20:11:41.972Z,2.22
2023-05-16T20:14:09.604Z,1.15
2023-05-16T20:16:36.853Z,1.33
2023-05-16T20:19:04.166Z,1.75
2023-05-16T20:21:31.229Z,1.45
2023-05-16T20:23:59.015Z,1.90
2023-05-16T20:26:25.987Z,1.58
2023-05-16T20:28:53.469Z,2.08
2023-05-16T20:31:20.472Z,3.17
2023-05-16T20:33:47.967Z,1.75
2023-05-16T20:36:15.178Z,1.60
2023-05-16T20:38:42.323Z,1.58
2023-05-16T20:41:09.635Z,2.60
2023-05-16T20:43:36.496Z,2.08
2023-05-16T20:46:03.507Z,2.08
2023-05-16T20:48:30.507Z,1.55
2023-05-16T20:50:57.661Z,2.03
2023-05-16T20:53:25.108Z,1.70
2023-05-16T20:55:52.029Z,1.85
2023-05-16T20:58:19.297Z,1.63
2023-05-16T21:00:46.120Z,1.73
2023-05-16T21:03:13.065Z,2.03
2023-05-16T21:05:40.150Z,1.65
2023-05-16T21:08:07.474Z,1.77
2023-05-16T21:10:34.375Z,2.05
2023-05-16T21:13:01.249Z,1.88
2023-05-16T21:15:28.702Z,2.05
2023-05-16T21:17:55.881Z,2.25
2023-05-16T21:20:23.038Z,1.55
2023-05-16T21:22:50.445Z,1.88
2023-05-16T21:25:17.529Z,1.55
2023-05-16T21:27:44.416Z,1.38
2023-05-16T21:30:12.030Z,1.92
2023-05-16T21:32:38.883Z,1.70
2023-05-16T21:35:06.948Z,1.48
2023-05-16T21:37:33.970Z,1.42
2023-05-16T21:40:00.983Z,2.50
2023-05-16T21:42:27.962Z,1.70
2023-05-16T21:44:54.842Z,2.15
2023-05-16T21:47:21.724Z,1.50
2023-05-16T21:49:48.585Z,2.35
2023-05-16T21:52:15.866Z,2.20
2023-05-16T21:54:43.065Z,2.30
2023-05-16T21:57:09.988Z,2.08
2023-05-16T21:59:36.848Z,1.75
2023-05-16T22:02:04.142Z,2.22
2023-05-16T22:04:31.267Z,2.00
2023-05-16T22:06:58.240Z,1.70
2023-05-16T22:09:25.157Z,1.40
2023-05-16T22:11:55.032Z,1.85
2023-05-16T22:14:21.938Z,1.93
2023-05-16T22:16:48.905Z,1.90
2023-05-16T22:19:16.015Z,2.40
2023-05-16T22:21:43.242Z,1.65
2023-05-16T22:24:10.557Z,1.60
2023-05-16T22:26:37.430Z,1.90
2023-05-16T22:29:04.293Z,2.10
2023-05-16T22:31:31.188Z,1.63
2023-05-16T22:33:58.237Z,2.03
2023-05-16T22:36:25.178Z,2.30
2023-05-16T22:38:52.037Z,2.20
2023-05-16T22:41:18.931Z,2.20
2023-05-16T22:43:46.088Z,1.95
2023-05-16T22:46:13.662Z,1.75
2023-05-16T22:48:41.473Z,1.60
2023-05-16T22:51:08.350Z,1.85
2023-05-16T22:53:35.397Z,1.83
2023-05-16T22:56:02.402Z,1.63
2023-05-16T22:58:29.277Z,2.45
2023-05-16T23:00:56.225Z,1.38
2023-05-16T23:03:23.406Z,1.88
2023-05-16T23:05:50.429Z,1.40
2023-05-16T23:08:18.128Z,1.80
2023-05-16T23:10:45.033Z,1.90
2023-05-16T23:13:12.417Z,1.70
2023-05-16T23:15:39.473Z,1.98
2023-05-16T23:18:06.573Z,1.65
2023-05-16T23:20:33.536Z,1.50
2023-05-16T23:23:00.406Z,1.95
2023-05-16T23:25:27.438Z,2.05
2023-05-16T23:27:57.653Z,1.90
2023-05-16T23:30:25.012Z,1.77
2023-05-16T23:32:52.121Z,1.95
2023-05-16T23:35:19.123Z,1.98
2023-05-16T23:37:45.974Z,2.00
2023-05-16T23:40:13.043Z,2.15
2023-05-16T23:42:42.851Z,1.70
2023-05-16T23:45:10.384Z,1.83
2023-05-16T23:47:37.366Z,1.88
2023-05-16T23:50:05.892Z,2.30
2023-05-16T23:52:32.837Z,2.22
2023-05-16T23:54:59.777Z,2.10
2023-05-16T23:57:26.869Z,2.42
2023-05-16T23:59:53.772Z,1.80
